Avondale, MO

4:31 AM CDT on July 29, 2015 (GMT -0500)
Scott's North Kansas City Station | | Change Station
CLOSE
Current Station
Personal Weather Station
Location: Kansas City, MO
Elevation: 758 ft
Nearby Weather Stations

Elev 758 ft 39.15 °N, 94.57 °W | Updated 2 minutes ago

Thunderstorm
Thunderstorm
73.2 °F
Feels Like 70 °F
N
0.0
Wind Variable Wind from WSW
Gusts 1.0 mph

Today
High -- | Low -- °F
--% Chance of Precip.
Yesterday
High -- | Low -- °F
Precip. -- in
6:15 AM 8:33 PM
Waxing Gibbous, 94% visible
Pressure 30.08 in
Visibility 10.0 miles
Clouds Mostly Cloudy 8500 ft
Overcast 11000 ft
Heat Index 70 °F
Dew Point 71 °F
Humidity 92%
Rainfall 0.15 in
Snow Depth Not available.
UV 0 out of 12
Pollen 5.60 out of 12
Air Quality Not available.
Flu Activity Not available.
SPECI KMKC 290928Z 00000KT 10SM VCTS BKN085 OVC110 23/22 A3008 RMK AO2 LTG DSNT SW-N RAE27 TSB0855E10 PRESRR P0000 T02280217

More Conditions Fewer Conditions

Pressure 30.08 in
Visibility 10.0 miles
Clouds Mostly Cloudy 8500 ft
Overcast 11000 ft
Heat Index 70 °F
Dew Point 71 °F
Humidity 92%
Rainfall 0.15 in
Snow Depth Not available.
UV 0 out of 12
Pollen 5.60 out of 12
Air Quality Not available.
Flu Activity Not available.
SPECI KMKC 290928Z 00000KT 10SM VCTS BKN085 OVC110 23/22 A3008 RMK AO2 LTG DSNT SW-N RAE27 TSB0855E10 PRESRR P0000 T02280217

More Conditions Fewer Conditions

10-Day Weather Forecast

×

Almanac

Astronomy

Jul. 29, 2015 Rise Set
Actual Time
Civil Twilight
Nautical Twilight
Astronomical Twilight
Moon
Length of Visible Light
Length of Day
Tomorrow will be .
, % of the Moon is Illuminated

Today's Extremes

State Highs State Lows

Community

WunderPhotos

Upload Photos

1,842,068 photos uploaded!

WunderBlogs® & News

Nearby

Air Quality

  Air Quality AQ Index Pollutant
Not available.

Snow Depth

Station Depth Elevation

Earthquake Activity

City Distance Mag. Time & Date
Minimum magnitude displayed is 2.5.

Coastal Water Temperatures

Place Temperature

Stations

Nearby Weather Stations

Station Location Temp. Windchill Dew Point Humidity Wind Precip. Elev Updated Type